createdAt,value
2018-06-21T00:02:14.102Z,7.37
2018-06-21T00:04:42.477Z,7.93
2018-06-21T00:07:10.834Z,7.17
2018-06-21T00:09:39.204Z,7.40
2018-06-21T00:12:07.537Z,6.67
2018-06-21T00:14:35.861Z,7.50
2018-06-21T00:17:04.186Z,6.13
2018-06-21T00:19:32.546Z,6.07
2018-06-21T00:22:00.914Z,7.23
2018-06-21T00:24:29.321Z,6.23
2018-06-21T00:26:57.677Z,7.67
2018-06-21T00:29:26.019Z,7.80
2018-06-21T00:31:54.345Z,7.90
2018-06-21T00:34:23.041Z,6.50
2018-06-21T00:36:51.117Z,6.97
2018-06-21T00:39:19.466Z,8.90
2018-06-21T00:41:47.823Z,7.70
2018-06-21T00:44:16.185Z,7.20
2018-06-21T00:46:44.529Z,7.17
2018-06-21T00:49:12.696Z,7.10
2018-06-21T00:51:41.019Z,7.90
2018-06-21T00:54:09.414Z,7.80
2018-06-21T00:56:37.777Z,7.60
2018-06-21T00:59:06.141Z,7.67
2018-06-21T01:01:34.809Z,7.50
2018-06-21T01:04:03.161Z,7.60
2018-06-21T01:06:31.533Z,6.50
2018-06-21T01:08:59.878Z,7.60
2018-06-21T01:11:28.201Z,7.17
2018-06-21T01:13:56.557Z,6.87
2018-06-21T01:16:24.879Z,7.43
2018-06-21T01:18:56.178Z,6.10
2018-06-21T01:21:24.509Z,6.37
2018-06-21T01:23:52.912Z,6.67
2018-06-21T01:26:21.282Z,6.73
2018-06-21T01:28:49.738Z,5.70
2018-06-21T01:31:18.257Z,6.80
2018-06-21T01:33:46.605Z,5.93
2018-06-21T01:36:14.940Z,6.47
2018-06-21T01:38:43.315Z,6.30
2018-06-21T01:41:11.671Z,6.83
2018-06-21T01:43:39.994Z,5.83
2018-06-21T01:46:08.348Z,5.50
2018-06-21T01:48:36.676Z,5.40
2018-06-21T01:51:05.085Z,6.70
2018-06-21T01:53:33.441Z,6.00
2018-06-21T01:56:01.786Z,6.90
2018-06-21T01:58:30.112Z,6.40
2018-06-21T02:00:58.496Z,6.20
2018-06-21T02:03:26.854Z,7.20
2018-06-21T02:05:55.289Z,6.50
2018-06-21T02:08:23.637Z,6.50
2018-06-21T02:10:52.092Z,5.67
2018-06-21T02:13:20.433Z,7.27
2018-06-21T02:15:48.778Z,6.70
2018-06-21T02:18:17.105Z,7.17
2018-06-21T02:20:45.173Z,6.47
2018-06-21T02:23:13.541Z,6.70
2018-06-21T02:25:41.894Z,6.20
2018-06-21T02:28:10.258Z,7.10
2018-06-21T02:30:38.598Z,6.50
2018-06-21T02:33:06.669Z,6.93
2018-06-21T02:35:35.033Z,6.23
2018-06-21T02:38:03.394Z,7.73
2018-06-21T02:40:31.731Z,6.80
2018-06-21T02:43:00.092Z,8.17
2018-06-21T02:45:28.485Z,10.33
2018-06-21T02:47:56.869Z,7.97
2018-06-21T02:50:25.205Z,7.27
2018-06-21T02:52:53.649Z,7.23
2018-06-21T02:55:21.965Z,7.33
2018-06-21T02:57:50.306Z,8.13
2018-06-21T03:00:18.713Z,9.50
2018-06-21T03:02:47.335Z,9.43
2018-06-21T03:05:16.052Z,9.03
2018-06-21T03:07:44.510Z,8.97
2018-06-21T03:10:12.833Z,11.10
2018-06-21T03:12:41.178Z,9.47
2018-06-21T03:15:09.585Z,10.30
2018-06-21T03:17:37.925Z,9.30
2018-06-21T03:20:06.286Z,9.50
2018-06-21T03:22:34.649Z,9.60
2018-06-21T03:27:37.783Z,11.00
2018-06-21T03:30:06.173Z,11.00
2018-06-21T03:32:34.607Z,10.97
2018-06-21T03:35:02.950Z,11.17
2018-06-21T03:37:31.281Z,13.23
2018-06-21T03:39:59.376Z,15.43
2018-06-21T03:42:27.801Z,15.40
2018-06-21T03:44:56.178Z,14.67
2018-06-21T03:47:24.513Z,15.93
2018-06-21T03:49:52.929Z,15.67
2018-06-21T03:52:21.304Z,15.60
2018-06-21T03:54:49.669Z,16.67
2018-06-21T03:57:18.034Z,15.20
2018-06-21T03:59:46.370Z,19.90
2018-06-21T04:02:14.751Z,17.33
2018-06-21T04:04:43.134Z,17.53
2018-06-21T04:07:11.510Z,17.23
2018-06-21T04:09:39.862Z,17.10
2018-06-21T04:12:08.222Z,18.30
2018-06-21T04:14:36.557Z,18.30
2018-06-21T04:17:04.645Z,16.40
2018-06-21T04:19:33.004Z,18.17
2018-06-21T04:22:01.354Z,18.90
2018-06-21T04:24:29.703Z,17.70
2018-06-21T04:26:58.111Z,17.20
2018-06-21T04:29:26.497Z,18.97
2018-06-21T04:31:54.886Z,18.67
2018-06-21T04:34:23.261Z,17.73
2018-06-21T04:36:51.621Z,17.77
2018-06-21T04:39:20.003Z,17.07
2018-06-21T04:41:48.416Z,16.90
2018-06-21T04:44:16.753Z,16.70
2018-06-21T04:46:45.090Z,17.40
2018-06-21T04:49:13.479Z,17.50
2018-06-21T04:51:41.827Z,17.50
2018-06-21T04:54:10.034Z,18.73
2018-06-21T04:56:38.385Z,18.37
2018-06-21T04:59:06.764Z,16.80
2018-06-21T05:01:35.217Z,17.10
2018-06-21T05:04:03.705Z,16.80
2018-06-21T05:06:32.054Z,16.30
2018-06-21T05:09:00.401Z,14.33
2018-06-21T05:11:28.833Z,13.10
2018-06-21T05:13:57.422Z,12.70
2018-06-21T05:16:25.744Z,14.03
2018-06-21T05:18:54.181Z,13.10
2018-06-21T05:21:22.637Z,11.40
2018-06-21T05:23:50.981Z,12.20
2018-06-21T05:26:19.471Z,11.13
2018-06-21T05:28:47.815Z,11.70
2018-06-21T05:31:16.166Z,12.13
2018-06-21T05:33:44.574Z,10.60
2018-06-21T05:36:12.967Z,10.60
2018-06-21T05:38:41.018Z,9.63
2018-06-21T05:41:09.460Z,9.70
2018-06-21T05:43:37.796Z,11.20
2018-06-21T05:46:06.155Z,9.00
2018-06-21T05:48:34.498Z,8.90
2018-06-21T05:51:02.832Z,4.50
2018-06-21T05:53:31.258Z,3.40
2018-06-21T05:55:59.594Z,4.10
2018-06-21T05:58:27.663Z,3.73
2018-06-21T06:00:56.058Z,2.63
2018-06-21T06:03:24.366Z,2.93
2018-06-21T06:05:52.814Z,2.70
2018-06-21T06:08:21.269Z,2.80
2018-06-21T06:10:49.525Z,2.40
2018-06-21T06:13:17.838Z,2.43
2018-06-21T06:15:45.942Z,2.93
2018-06-21T06:18:14.302Z,2.83
2018-06-21T06:20:42.655Z,2.80
2018-06-21T06:23:11.015Z,2.60
2018-06-21T06:25:39.371Z,3.30
2018-06-21T06:28:07.709Z,3.63
2018-06-21T06:30:36.094Z,3.10
2018-06-21T06:33:04.464Z,2.80
2018-06-21T06:35:32.794Z,4.07
2018-06-21T06:38:01.530Z,3.27
2018-06-21T06:40:30.031Z,5.03
2018-06-21T06:42:58.262Z,6.00
2018-06-21T06:45:26.710Z,4.60
2018-06-21T06:47:55.045Z,3.13
2018-06-21T06:50:23.632Z,2.20
2018-06-21T06:52:52.831Z,3.77
2018-06-21T06:55:21.684Z,2.97
2018-06-21T06:57:50.023Z,2.40
2018-06-21T07:00:18.379Z,2.90
2018-06-21T07:02:46.703Z,3.10
2018-06-21T07:05:15.058Z,3.10
2018-06-21T07:07:44.073Z,2.93
2018-06-21T07:10:12.367Z,3.70
2018-06-21T07:12:40.694Z,3.30
2018-06-21T07:15:09.011Z,3.40
2018-06-21T07:17:38.469Z,4.37
2018-06-21T07:20:06.808Z,3.67
2018-06-21T07:22:35.398Z,3.67
2018-06-21T07:25:03.747Z,4.30
2018-06-21T07:27:32.099Z,4.37
2018-06-21T07:30:00.426Z,3.33
2018-06-21T07:32:28.762Z,3.30
2018-06-21T07:34:57.087Z,2.60
2018-06-21T07:37:25.415Z,2.53
2018-06-21T07:39:53.782Z,2.23
2018-06-21T07:42:22.074Z,2.70
2018-06-21T07:44:51.068Z,2.63
2018-06-21T07:47:19.411Z,2.53
2018-06-21T07:49:47.735Z,2.43
2018-06-21T07:52:16.051Z,2.23
2018-06-21T07:54:44.411Z,1.90
2018-06-21T07:57:12.734Z,2.70
2018-06-21T07:59:41.065Z,2.10
2018-06-21T08:02:09.443Z,2.30
2018-06-21T08:04:37.780Z,1.77
2018-06-21T08:07:06.100Z,2.23
2018-06-21T08:09:34.435Z,2.70
2018-06-21T08:12:02.755Z,2.10
2018-06-21T08:14:31.063Z,2.13
2018-06-21T08:16:59.391Z,2.37
2018-06-21T08:22:02.581Z,2.40
2018-06-21T08:24:30.904Z,2.53
2018-06-21T08:26:59.220Z,2.20
2018-06-21T08:29:27.524Z,2.00
2018-06-21T08:31:55.962Z,2.27
2018-06-21T08:34:23.994Z,2.20
2018-06-21T08:36:52.375Z,2.00
2018-06-21T08:39:21.283Z,2.20
2018-06-21T08:41:49.602Z,1.70
2018-06-21T08:44:17.931Z,1.67
2018-06-21T08:46:46.279Z,2.13
2018-06-21T08:49:14.594Z,2.30
2018-06-21T08:51:42.902Z,1.73
2018-06-21T08:54:11.243Z,1.93
2018-06-21T08:56:39.571Z,1.60
2018-06-21T08:59:07.907Z,1.93
2018-06-21T09:01:36.247Z,1.93
2018-06-21T09:04:04.694Z,1.70
2018-06-21T13:53:09.029Z,1.70
2018-06-21T15:39:21.585Z,1.70
2018-06-21T15:41:49.922Z,1.70
2018-06-21T15:44:18.723Z,1.83
2018-06-21T15:46:47.187Z,2.00
2018-06-21T15:49:16.256Z,1.70
2018-06-21T15:51:44.579Z,1.50
2018-06-21T15:54:13.022Z,2.10
2018-06-21T15:56:41.427Z,1.63
2018-06-21T15:59:10.119Z,1.40
2018-06-21T16:01:38.434Z,2.30
2018-06-21T16:04:07.111Z,1.93
2018-06-21T16:06:35.166Z,1.43
2018-06-21T16:09:04.547Z,1.70
2018-06-21T16:11:32.966Z,1.20
2018-06-21T16:14:02.472Z,1.80
2018-06-21T16:16:30.555Z,1.40
2018-06-21T16:18:58.885Z,1.57
2018-06-21T16:21:27.243Z,1.80
2018-06-21T16:23:56.511Z,1.57
2018-06-21T16:26:26.499Z,2.07
2018-06-21T16:28:57.642Z,1.80
2018-06-21T16:31:29.756Z,2.27
2018-06-21T16:33:59.411Z,2.30
2018-06-21T16:36:30.060Z,2.23
2018-06-21T16:38:59.939Z,1.90
2018-06-21T16:41:28.917Z,2.30
2018-06-21T16:43:59.039Z,2.70
2018-06-21T16:46:28.146Z,2.30
2018-06-21T16:48:59.034Z,3.30
2018-06-21T16:51:29.002Z,3.13
2018-06-21T16:53:58.107Z,2.27
2018-06-21T16:56:26.470Z,2.20
2018-06-21T16:58:55.984Z,3.00
2018-06-21T17:01:24.231Z,2.60
2018-06-21T17:03:53.221Z,2.43
2018-06-21T17:06:29.675Z,3.27
2018-06-21T17:08:58.619Z,2.55
2018-06-21T17:11:28.073Z,3.07
2018-06-21T17:13:58.035Z,10.33
2018-06-21T17:16:27.410Z,2.90
2018-06-21T17:18:56.317Z,2.80
2018-06-21T17:21:25.471Z,3.53
2018-06-21T17:23:54.204Z,2.53
2018-06-21T17:26:25.055Z,2.43
2018-06-21T17:28:55.364Z,2.50
2018-06-21T17:31:24.514Z,3.20
2018-06-21T17:33:52.574Z,2.87
2018-06-21T17:36:21.472Z,3.20
2018-06-21T17:38:49.815Z,2.50
2018-06-21T17:41:18.130Z,3.20
2018-06-21T17:43:46.543Z,3.00
2018-06-21T17:46:14.847Z,2.33
2018-06-21T17:48:43.197Z,3.03
2018-06-21T17:51:11.548Z,2.77
2018-06-21T17:53:39.903Z,2.77
2018-06-21T17:56:08.225Z,2.50
2018-06-21T17:58:36.603Z,2.30
2018-06-21T18:01:05.691Z,3.53
2018-06-21T18:03:34.790Z,3.90
2018-06-21T18:06:03.151Z,2.77
2018-06-21T18:08:31.564Z,2.23
2018-06-21T18:10:59.990Z,2.17
2018-06-21T18:13:28.367Z,2.10
2018-06-21T18:15:56.750Z,2.50
2018-06-21T18:18:25.178Z,2.53
2018-06-21T18:20:53.731Z,2.80
2018-06-21T18:23:22.131Z,2.40
2018-06-21T18:25:50.592Z,2.83
2018-06-21T18:28:18.643Z,3.27
2018-06-21T18:30:47.555Z,2.90
2018-06-21T18:33:16.847Z,2.83
2018-06-21T18:35:45.204Z,2.87
2018-06-21T18:38:13.606Z,2.90
2018-06-21T18:40:41.955Z,3.17
2018-06-21T18:43:10.322Z,2.20
2018-06-21T18:45:39.356Z,2.27
2018-06-21T18:48:07.672Z,2.63
2018-06-21T18:50:35.978Z,2.77
2018-06-21T18:53:04.334Z,2.47
2018-06-21T18:55:32.687Z,3.40
2018-06-21T18:58:01.027Z,2.00
2018-06-21T19:00:30.636Z,2.90
2018-06-21T19:02:58.938Z,2.97
2018-06-21T19:05:27.247Z,2.87
2018-06-21T19:08:01.379Z,2.50
2018-06-21T19:10:35.350Z,3.00
2018-06-21T19:13:03.698Z,3.40
2018-06-21T19:15:32.038Z,3.83
2018-06-21T19:18:00.383Z,3.33
2018-06-21T19:20:28.823Z,2.30
2018-06-21T19:22:57.139Z,2.10
2018-06-21T19:25:25.486Z,2.60
2018-06-21T19:27:53.968Z,2.63
2018-06-21T19:30:22.831Z,2.30
2018-06-21T19:32:51.260Z,2.93
2018-06-21T19:35:19.799Z,2.43
2018-06-21T19:37:48.295Z,2.67
2018-06-21T19:40:16.650Z,6.53
2018-06-21T19:42:44.978Z,1.90
2018-06-21T19:45:13.115Z,2.90
2018-06-21T19:47:41.515Z,3.37
2018-06-21T19:50:09.881Z,3.75
2018-06-21T19:52:38.314Z,2.60
2018-06-21T19:55:06.751Z,2.25
2018-06-21T19:57:35.092Z,2.85
2018-06-21T20:00:03.918Z,2.25
2018-06-21T20:02:37.651Z,3.10
2018-06-21T20:34:46.750Z,1.90
2018-06-21T20:42:11.027Z,3.10
2018-06-21T20:54:31.419Z,2.80
2018-06-21T20:56:59.768Z,2.10
2018-06-21T20:59:28.104Z,2.50
2018-06-21T21:01:56.538Z,2.40
2018-06-21T21:04:26.944Z,2.55
2018-06-21T21:06:55.277Z,3.10
2018-06-21T21:09:23.650Z,2.00
2018-06-21T21:11:52.021Z,3.80
2018-06-21T21:14:20.423Z,3.90
2018-06-21T21:16:48.514Z,2.37
2018-06-21T21:19:16.876Z,2.00
2018-06-21T21:21:44.947Z,10.00
2018-06-21T21:24:13.265Z,2.70
2018-06-21T21:26:42.219Z,8.27
2018-06-21T21:29:10.418Z,2.20
2018-06-21T21:31:38.805Z,2.40
2018-06-21T21:34:07.859Z,4.17
2018-06-21T21:36:36.277Z,2.80
2018-06-21T21:39:06.403Z,3.57
2018-06-21T21:41:34.722Z,2.63
2018-06-21T21:44:03.091Z,3.02
2018-06-21T21:46:31.451Z,2.33
2018-06-21T21:48:59.844Z,3.70
2018-06-21T21:51:28.267Z,2.62
2018-06-21T21:53:56.611Z,2.45
2018-06-21T21:56:24.967Z,2.50
2018-06-21T21:58:53.398Z,24.80
2018-06-21T22:01:21.743Z,3.10
2018-06-21T22:06:24.748Z,2.80
2018-06-21T22:08:53.163Z,13.10
2018-06-21T22:11:21.607Z,2.37
2018-06-21T22:13:54.228Z,3.77
2018-06-21T22:16:22.580Z,3.07
2018-06-21T22:18:50.916Z,4.37
2018-06-21T22:21:19.258Z,4.37
2018-06-21T22:23:47.393Z,3.47
2018-06-21T22:26:15.746Z,6.80
2018-06-21T22:28:44.062Z,4.30
2018-06-21T22:31:12.416Z,2.55
2018-06-21T22:33:40.758Z,8.23
2018-06-21T22:36:09.113Z,5.78
2018-06-21T22:38:37.569Z,8.60
2018-06-21T22:41:06.227Z,8.93
2018-06-21T22:43:34.959Z,2.13
2018-06-21T22:46:03.728Z,1.92
2018-06-21T22:48:32.079Z,2.00
2018-06-21T22:51:00.387Z,2.25
2018-06-21T22:53:28.736Z,2.63
2018-06-21T22:55:57.083Z,1.73
2018-06-21T22:58:25.506Z,1.98
2018-06-21T23:00:53.875Z,1.92
2018-06-21T23:03:22.246Z,2.13
2018-06-21T23:05:50.978Z,2.62
2018-06-21T23:08:19.286Z,2.45
2018-06-21T23:10:47.851Z,2.25
2018-06-21T23:13:15.904Z,2.20
2018-06-21T23:15:44.375Z,2.17
2018-06-21T23:18:17.543Z,2.13
2018-06-21T23:20:45.862Z,2.45
2018-06-21T23:23:14.170Z,2.27
2018-06-21T23:25:42.748Z,2.20
2018-06-21T23:28:11.177Z,1.77
2018-06-21T23:30:39.479Z,2.35
2018-06-21T23:33:07.785Z,2.87
2018-06-21T23:35:36.132Z,2.77
2018-06-21T23:38:04.526Z,1.75
2018-06-21T23:40:32.923Z,2.00
2018-06-21T23:43:01.238Z,2.20
2018-06-21T23:45:29.552Z,2.05
2018-06-21T23:47:57.926Z,2.27
2018-06-21T23:50:26.368Z,2.30
2018-06-21T23:52:54.717Z,2.07
2018-06-21T23:55:22.883Z,2.13
2018-06-21T23:57:51.238Z,2.27
